KHOP

Campbell AAF (Fort Campbell) Airport

Fort Campbell/Hopkinsville, Kentucky, USA
METAR KHOP 240056Z AUTO 36004KT 10SM CLR 26/19 A3008 RMK AO2 SLP183 T02550187
Observed Flight Rules
May-24 @ 00:56 UTC (58 minutes ago) Visual Flight Rules
Wind Visibility Clouds
360° at 4 knots 10 miles
  • Clear skies
Temperatures Readings
Current 26°C / 79°F
Dewpoint 19°C / 66°F
Humidity 65%
Altimeter 30.08" Hg
Pressure 1018.3 hPa
Elevation 174
METAR KHOP 240056Z AUTO 36004KT 10SM CLR 26/19 A3008 RMK AO2 SLP183 T02550187
Observed Flight Rules
May-24 @ 00:56 UTC
(58 minutes ago)
VFR
Wind Visibility
360° at 4 knots 10 miles
Clouds
  • Clear skies
Temperature Dewpoint
26°C / 79°F 19°C / 66°F
Humidity Altimeter Pressure
65% 30.08" Hg 1018.3 hPa